sensor_id;sensor_type;location;lat;lon;timestamp;pressure;altitude;pressure_sealevel;temperature;humidity
50790;BME280;37287;47.554;7.844;2023-04-20T00:01:32;97695.31;;;4.65;100.00
50790;BME280;37287;47.554;7.844;2023-04-20T00:03:59;97688.41;;;4.64;100.00
50790;BME280;37287;47.554;7.844;2023-04-20T00:06:26;97691.88;;;4.64;100.00
50790;BME280;37287;47.554;7.844;2023-04-20T00:08:55;97686.84;;;4.63;100.00
50790;BME280;37287;47.554;7.844;2023-04-20T00:11:21;97683.06;;;4.64;100.00
50790;BME280;37287;47.554;7.844;2023-04-20T00:13:48;97675.44;;;4.66;100.00
50790;BME280;37287;47.554;7.844;2023-04-20T00:16:16;97678.13;;;4.66;100.00
50790;BME280;37287;47.554;7.844;2023-04-20T00:18:45;97671.97;;;4.65;100.00
50790;BME280;37287;47.554;7.844;2023-04-20T00:21:12;97671.19;;;4.65;100.00
50790;BME280;37287;47.554;7.844;2023-04-20T00:23:40;97665.81;;;4.65;100.00
50790;BME280;37287;47.554;7.844;2023-04-20T00:26:07;97660.47;;;4.65;100.00
50790;BME280;37287;47.554;7.844;2023-04-20T00:28:35;97662.03;;;4.66;100.00
50790;BME280;37287;47.554;7.844;2023-04-20T00:31:11;97658.56;;;4.65;100.00
50790;BME280;37287;47.554;7.844;2023-04-20T00:33:38;97655.88;;;4.65;100.00
50790;BME280;37287;47.554;7.844;2023-04-20T00:36:04;97644.47;;;4.69;100.00
50790;BME280;37287;47.554;7.844;2023-04-20T00:38:33;97647.16;;;4.69;100.00
50790;BME280;37287;47.554;7.844;2023-04-20T00:41:02;97637.53;;;4.68;100.00
50790;BME280;37287;47.554;7.844;2023-04-20T00:43:31;97630.66;;;4.67;100.00
50790;BME280;37287;47.554;7.844;2023-04-20T00:45:58;97633.75;;;4.69;100.00
50790;BME280;37287;47.554;7.844;2023-04-20T00:48:24;97626.81;;;4.68;100.00
50790;BME280;37287;47.554;7.844;2023-04-20T00:50:51;97624.47;;;4.66;100.00
50790;BME280;37287;47.554;7.844;2023-04-20T00:53:20;97626.81;;;4.68;100.00
50790;BME280;37287;47.554;7.844;2023-04-20T00:55:46;97626.81;;;4.68;100.00
50790;BME280;37287;47.554;7.844;2023-04-20T00:58:13;97623.03;;;4.69;100.00
50790;BME280;37287;47.554;7.844;2023-04-20T01:00:42;97617.66;;;4.69;100.00
50790;BME280;37287;47.554;7.844;2023-04-20T01:03:09;97617.66;;;4.69;100.00
50790;BME280;37287;47.554;7.844;2023-04-20T01:05:36;97607.69;;;4.69;100.00
50790;BME280;37287;47.554;7.844;2023-04-20T01:08:09;97606.16;;;4.68;100.00
50790;BME280;37287;47.554;7.844;2023-04-20T01:10:36;97600.81;;;4.68;100.00
50790;BME280;37287;47.554;7.844;2023-04-20T01:13:02;97597.31;;;4.68;100.00
50790;BME280;37287;47.554;7.844;2023-04-20T01:15:31;97585.47;;;4.69;100.00
50790;BME280;37287;47.554;7.844;2023-04-20T01:17:59;97584.72;;;4.68;100.00
50790;BME280;37287;47.554;7.844;2023-04-20T01:20:26;97573.19;;;4.68;100.00
50790;BME280;37287;47.554;7.844;2023-04-20T01:22:53;97574.75;;;4.69;100.00
50790;BME280;37287;47.554;7.844;2023-04-20T01:25:20;97576.66;;;4.68;100.00
50790;BME280;37287;47.554;7.844;2023-04-20T01:27:47;97575.53;;;4.69;100.00
50790;BME280;37287;47.554;7.844;2023-04-20T01:30:14;97572.50;;;4.71;100.00
50790;BME280;37287;47.554;7.844;2023-04-20T01:32:41;97563.34;;;4.72;100.00
50790;BME280;37287;47.554;7.844;2023-04-20T01:35:08;97552.59;;;4.72;100.00
50790;BME280;37287;47.554;7.844;2023-04-20T01:37:36;97556.41;;;4.71;100.00
50790;BME280;37287;47.554;7.844;2023-04-20T01:40:03;97544.91;;;4.70;100.00
50790;BME280;37287;47.554;7.844;2023-04-20T01:42:31;97548.03;;;4.72;100.00
50790;BME280;37287;47.554;7.844;2023-04-20T01:45:00;97550.72;;;4.72;100.00
50790;BME280;37287;47.554;7.844;2023-04-20T01:47:28;97536.53;;;4.72;100.00
50790;BME280;37287;47.554;7.844;2023-04-20T01:49:54;97533.06;;;4.71;100.00
50790;BME280;37287;47.554;7.844;2023-04-20T01:52:22;97527.72;;;4.71;100.00
50790;BME280;37287;47.554;7.844;2023-04-20T01:54:49;97516.19;;;4.71;100.00
50790;BME280;37287;47.554;7.844;2023-04-20T01:57:16;97517.31;;;4.70;100.00
50790;BME280;37287;47.554;7.844;2023-04-20T01:59:44;97515.06;;;4.72;100.00
50790;BME280;37287;47.554;7.844;2023-04-20T02:02:11;97512.38;;;4.72;100.00
50790;BME280;37287;47.554;7.844;2023-04-20T02:04:39;97512.03;;;4.73;100.00
50790;BME280;37287;47.554;7.844;2023-04-20T02:07:12;97505.91;;;4.73;100.00
50790;BME280;37287;47.554;7.844;2023-04-20T02:09:38;97505.13;;;4.72;100.00
50790;BME280;37287;47.554;7.844;2023-04-20T02:12:05;97499.78;;;4.72;100.00
50790;BME280;37287;47.554;7.844;2023-04-20T02:14:33;97495.19;;;4.73;100.00
50790;BME280;37287;47.554;7.844;2023-04-20T02:17:00;97491.28;;;4.70;100.00
50790;BME280;37287;47.554;7.844;2023-04-20T02:19:27;97489.72;;;4.69;100.00
50790;BME280;37287;47.554;7.844;2023-04-20T02:21:55;97487.38;;;4.68;100.00
50790;BME280;37287;47.554;7.844;2023-04-20T02:24:22;97486.63;;;4.67;100.00
50790;BME280;37287;47.554;7.844;2023-04-20T02:26:50;97480.47;;;4.67;100.00
50790;BME280;37287;47.554;7.844;2023-04-20T02:29:21;97486.63;;;4.67;100.00
50790;BME280;37287;47.554;7.844;2023-04-20T02:31:48;97488.94;;;4.69;100.00
50790;BME280;37287;47.554;7.844;2023-04-20T02:34:15;97482.00;;;4.68;100.00
50790;BME280;37287;47.554;7.844;2023-04-20T02:36:42;97484.34;;;4.69;100.00
50790;BME280;37287;47.554;7.844;2023-04-20T02:39:08;97481.78;;;4.73;100.00
50790;BME280;37287;47.554;7.844;2023-04-20T02:41:35;97482.13;;;4.71;100.00
50790;BME280;37287;47.554;7.844;2023-04-20T02:44:02;97477.97;;;4.74;100.00
50790;BME280;37287;47.554;7.844;2023-04-20T02:46:28;97476.06;;;4.74;100.00
50790;BME280;37287;47.554;7.844;2023-04-20T02:48:57;97466.03;;;4.71;100.00
50790;BME280;37287;47.554;7.844;2023-04-20T02:51:28;97464.47;;;4.70;100.00
50790;BME280;37287;47.554;7.844;2023-04-20T02:53:54;97464.47;;;4.70;100.00
50790;BME280;37287;47.554;7.844;2023-04-20T02:56:21;97456.78;;;4.69;100.00
50790;BME280;37287;47.554;7.844;2023-04-20T02:58:49;97457.19;;;4.71;100.00
50790;BME280;37287;47.554;7.844;2023-04-20T03:01:19;97452.97;;;4.70;100.00
50790;BME280;37287;47.554;7.844;2023-04-20T03:03:46;97451.81;;;4.71;100.00
50790;BME280;37287;47.554;7.844;2023-04-20T03:06:13;97450.72;;;4.72;100.00
50790;BME280;37287;47.554;7.844;2023-04-20T03:08:39;97458.75;;;4.72;100.00
50790;BME280;37287;47.554;7.844;2023-04-20T03:11:06;97452.28;;;4.73;100.00
50790;BME280;37287;47.554;7.844;2023-04-20T03:13:36;97456.06;;;4.72;100.00
50790;BME280;37287;47.554;7.844;2023-04-20T03:16:04;97450.72;;;4.72;100.00
50790;BME280;37287;47.554;7.844;2023-04-20T03:18:31;97446.91;;;4.73;100.00
50790;BME280;37287;47.554;7.844;2023-04-20T03:20:57;97448.03;;;4.72;100.00
50790;BME280;37287;47.554;7.844;2023-04-20T03:23:24;97455.31;;;4.71;100.00
50790;BME280;37287;47.554;7.844;2023-04-20T03:25:51;97450.72;;;4.72;100.00
50790;BME280;37287;47.554;7.844;2023-04-20T03:28:21;97443.00;;;4.70;100.00
50790;BME280;37287;47.554;7.844;2023-04-20T03:30:48;97452.97;;;4.70;100.00
50790;BME280;37287;47.554;7.844;2023-04-20T03:33:15;97448.03;;;4.72;100.00
50790;BME280;37287;47.554;7.844;2023-04-20T03:35:43;97456.00;;;4.68;100.00
50790;BME280;37287;47.554;7.844;2023-04-20T03:38:12;97449.94;;;4.71;100.00
50790;BME280;37287;47.554;7.844;2023-04-20T03:40:39;97455.66;;;4.70;100.00
50790;BME280;37287;47.554;7.844;2023-04-20T03:43:05;97454.50;;;4.71;100.00
50790;BME280;37287;47.554;7.844;2023-04-20T03:45:32;97447.16;;;4.68;100.00
50790;BME280;37287;47.554;7.844;2023-04-20T03:47:58;97442.94;;;4.67;100.00
50790;BME280;37287;47.554;7.844;2023-04-20T03:50:27;97441.72;;;4.64;100.00
50790;BME280;37287;47.554;7.844;2023-04-20T03:52:53;97443.59;;;4.63;100.00
50790;BME280;37287;47.554;7.844;2023-04-20T03:55:21;97442.84;;;4.63;100.00
50790;BME280;37287;47.554;7.844;2023-04-20T03:57:47;97448.22;;;4.63;100.00
50790;BME280;37287;47.554;7.844;2023-04-20T04:00:14;97445.88;;;4.61;100.00
50790;BME280;37287;47.554;7.844;2023-04-20T04:02:41;97440.06;;;4.59;100.00
50790;BME280;37287;47.554;7.844;2023-04-20T04:05:08;97428.22;;;4.60;100.00
50790;BME280;37287;47.554;7.844;2023-04-20T04:07:35;97432.03;;;4.59;100.00
50790;BME280;37287;47.554;7.844;2023-04-20T04:10:01;97430.47;;;4.58;100.00
50790;BME280;37287;47.554;7.844;2023-04-20T04:12:32;97427.00;;;4.58;100.00
50790;BME280;37287;47.554;7.844;2023-04-20T04:14:58;97422.78;;;4.57;100.00
50790;BME280;37287;47.554;7.844;2023-04-20T04:17:26;97423.13;;;4.55;100.00
50790;BME280;37287;47.554;7.844;2023-04-20T04:19:53;97418.91;;;4.54;100.00
50790;BME280;37287;47.554;7.844;2023-04-20T04:22:19;97421.13;;;4.52;100.00
50790;BME280;37287;47.554;7.844;2023-04-20T04:24:48;97424.94;;;4.51;100.00
50790;BME280;37287;47.554;7.844;2023-04-20T04:27:21;97422.69;;;4.53;100.00
50790;BME280;37287;47.554;7.844;2023-04-20T04:29:48;97423.81;;;4.52;100.00
50790;BME280;37287;47.554;7.844;2023-04-20T04:32:15;97423.81;;;4.52;100.00
50790;BME280;37287;47.554;7.844;2023-04-20T04:34:44;97426.06;;;4.50;100.00
50790;BME280;37287;47.554;7.844;2023-04-20T04:37:11;97426.06;;;4.50;100.00
50790;BME280;37287;47.554;7.844;2023-04-20T04:39:37;97418.72;;;4.47;100.00
50790;BME280;37287;47.554;7.844;2023-04-20T04:42:13;97426.31;;;4.45;100.00
50790;BME280;37287;47.554;7.844;2023-04-20T04:44:39;97427.88;;;4.46;100.00
50790;BME280;37287;47.554;7.844;2023-04-20T04:47:06;97435.94;;;4.46;100.00
50790;BME280;37287;47.554;7.844;2023-04-20T04:49:34;97420.97;;;4.45;100.00
50790;BME280;37287;47.554;7.844;2023-04-20T04:52:02;97417.50;;;4.44;100.00
50790;BME280;37287;47.554;7.844;2023-04-20T04:54:29;97412.91;;;4.45;100.00
50790;BME280;37287;47.554;7.844;2023-04-20T04:56:57;97405.66;;;4.45;100.00
50790;BME280;37287;47.554;7.844;2023-04-20T04:59:24;97416.41;;;4.45;100.00
50790;BME280;37287;47.554;7.844;2023-04-20T05:01:50;97420.97;;;4.45;100.00
50790;BME280;37287;47.554;7.844;2023-04-20T05:04:21;97420.19;;;4.44;100.00
50790;BME280;37287;47.554;7.844;2023-04-20T05:06:48;97415.59;;;4.45;100.00
50790;BME280;37287;47.554;7.844;2023-04-20T05:09:14;97419.84;;;4.46;100.00
50790;BME280;37287;47.554;7.844;2023-04-20T05:11:46;97417.16;;;4.46;100.00
50790;BME280;37287;47.554;7.844;2023-04-20T05:14:13;97419.84;;;4.46;100.00
50790;BME280;37287;47.554;7.844;2023-04-20T05:16:39;97420.59;;;4.46;100.00
50790;BME280;37287;47.554;7.844;2023-04-20T05:19:08;97426.41;;;4.48;100.00
50790;BME280;37287;47.554;7.844;2023-04-20T05:21:35;97433.66;;;4.48;100.00
50790;BME280;37287;47.554;7.844;2023-04-20T05:24:05;97432.13;;;4.47;100.00
50790;BME280;37287;47.554;7.844;2023-04-20T05:26:35;97435.22;;;4.49;100.00
50790;BME280;37287;47.554;7.844;2023-04-20T05:29:02;97439.47;;;4.50;100.00
50790;BME280;37287;47.554;7.844;2023-04-20T05:31:28;97432.53;;;4.49;100.00
50790;BME280;37287;47.554;7.844;2023-04-20T05:33:58;97438.34;;;4.51;100.00
50790;BME280;37287;47.554;7.844;2023-04-20T05:36:27;97434.53;;;4.52;100.00
50790;BME280;37287;47.554;7.844;2023-04-20T05:38:55;97426.13;;;4.54;100.00
50790;BME280;37287;47.554;7.844;2023-04-20T05:41:22;97416.22;;;4.54;100.00
50790;BME280;37287;47.554;7.844;2023-04-20T05:43:53;97419.66;;;4.55;100.00
50790;BME280;37287;47.554;7.844;2023-04-20T05:46:20;97418.09;;;4.54;100.00
50790;BME280;37287;47.554;7.844;2023-04-20T05:48:47;97411.97;;;4.53;100.00
50790;BME280;37287;47.554;7.844;2023-04-20T05:51:14;97415.75;;;4.52;100.00
50790;BME280;37287;47.554;7.844;2023-04-20T05:53:41;97420.34;;;4.52;100.00
50790;BME280;37287;47.554;7.844;2023-04-20T05:56:09;97418.44;;;4.52;100.00
50790;BME280;37287;47.554;7.844;2023-04-20T05:58:38;97431.44;;;4.50;100.00
50790;BME280;37287;47.554;7.844;2023-04-20T06:01:04;97432.91;;;4.47;100.00
50790;BME280;37287;47.554;7.844;2023-04-20T06:03:31;97432.47;;;4.45;100.00
50790;BME280;37287;47.554;7.844;2023-04-20T06:05:58;97422.06;;;4.44;100.00
50790;BME280;37287;47.554;7.844;2023-04-20T06:08:25;97428.59;;;4.43;100.00
50790;BME280;37287;47.554;7.844;2023-04-20T06:10:56;97435.41;;;4.40;100.00
50790;BME280;37287;47.554;7.844;2023-04-20T06:13:23;97434.94;;;4.38;100.00
50790;BME280;37287;47.554;7.844;2023-04-20T06:15:50;97429.88;;;4.33;100.00
50790;BME280;37287;47.554;7.844;2023-04-20T06:18:18;97435.13;;;4.29;100.00
50790;BME280;37287;47.554;7.844;2023-04-20T06:20:45;97437.38;;;4.27;100.00
50790;BME280;37287;47.554;7.844;2023-04-20T06:23:12;97433.38;;;4.21;100.00
50790;BME280;37287;47.554;7.844;2023-04-20T06:25:38;97441.00;;;4.19;100.00
50790;BME280;37287;47.554;7.844;2023-04-20T06:28:05;97437.91;;;4.17;100.00
50790;BME280;37287;47.554;7.844;2023-04-20T06:30:32;97443.91;;;4.14;100.00
50790;BME280;37287;47.554;7.844;2023-04-20T06:33:01;97438.81;;;4.09;100.00
50790;BME280;37287;47.554;7.844;2023-04-20T06:35:52;97439.06;;;4.04;100.00
50790;BME280;37287;47.554;7.844;2023-04-20T06:38:22;97435.97;;;4.02;100.00
50790;BME280;37287;47.554;7.844;2023-04-20T06:40:49;97435.09;;;3.98;100.00
50790;BME280;37287;47.554;7.844;2023-04-20T06:43:15;97434.97;;;3.94;100.00
50790;BME280;37287;47.554;7.844;2023-04-20T06:45:42;97434.09;;;3.90;100.00
50790;BME280;37287;47.554;7.844;2023-04-20T06:48:10;97440.91;;;3.87;100.00
50790;BME280;37287;47.554;7.844;2023-04-20T06:50:56;97442.75;;;3.83;100.00
50790;BME280;37287;47.554;7.844;2023-04-20T06:53:23;97446.09;;;3.80;100.00
50790;BME280;37287;47.554;7.844;2023-04-20T06:55:49;97444.56;;;3.79;100.00
50790;BME280;37287;47.554;7.844;2023-04-20T06:58:16;97449.09;;;3.78;100.00
50790;BME280;37287;47.554;7.844;2023-04-20T07:00:43;97434.94;;;3.78;100.00
50790;BME280;37287;47.554;7.844;2023-04-20T07:03:09;97435.97;;;3.73;100.00
50790;BME280;37287;47.554;7.844;2023-04-20T07:05:36;97436.63;;;3.70;100.00
50790;BME280;37287;47.554;7.844;2023-04-20T07:08:03;97441.91;;;3.67;100.00
50790;BME280;37287;47.554;7.844;2023-04-20T07:10:29;97437.31;;;3.67;100.00
50790;BME280;37287;47.554;7.844;2023-04-20T07:12:56;97440.16;;;3.58;100.00
50790;BME280;37287;47.554;7.844;2023-04-20T07:15:24;97437.81;;;3.57;100.00
50790;BME280;37287;47.554;7.844;2023-04-20T07:17:51;97441.50;;;3.52;100.00
50790;BME280;37287;47.554;7.844;2023-04-20T07:20:17;97438.19;;;3.43;100.00
50790;BME280;37287;47.554;7.844;2023-04-20T07:22:44;97433.06;;;3.38;100.00
50790;BME280;37287;47.554;7.844;2023-04-20T07:25:12;97434.88;;;3.34;100.00
50790;BME280;37287;47.554;7.844;2023-04-20T07:27:39;97434.88;;;3.34;100.00
50790;BME280;37287;47.554;7.844;2023-04-20T07:30:09;97443.13;;;3.29;100.00
50790;BME280;37287;47.554;7.844;2023-04-20T07:32:38;97441.91;;;3.26;100.00
50790;BME280;37287;47.554;7.844;2023-04-20T07:48:38;97442.25;;;3.12;100.00
50790;BME280;37287;47.554;7.844;2023-04-20T07:51:06;97439.56;;;3.12;100.00
50790;BME280;37287;47.554;7.844;2023-04-20T07:53:33;97445.72;;;3.13;100.00
50790;BME280;37287;47.554;7.844;2023-04-20T07:56:01;97430.56;;;3.17;100.00
50790;BME280;37287;47.554;7.844;2023-04-20T07:58:27;97438.03;;;3.11;100.00
50790;BME280;37287;47.554;7.844;2023-04-20T08:00:54;97439.56;;;3.12;100.00
50790;BME280;37287;47.554;7.844;2023-04-20T08:03:21;97431.88;;;3.10;100.00
50790;BME280;37287;47.554;7.844;2023-04-20T08:05:50;97435.38;;;3.11;100.00
50790;BME280;37287;47.554;7.844;2023-04-20T08:08:16;97444.50;;;3.10;100.00
50790;BME280;37287;47.554;7.844;2023-04-20T08:10:43;97439.03;;;3.06;100.00
50790;BME280;37287;47.554;7.844;2023-04-20T08:13:11;97443.25;;;3.07;100.00
50790;BME280;37287;47.554;7.844;2023-04-20T08:15:38;97434.34;;;3.03;100.00
50790;BME280;37287;47.554;7.844;2023-04-20T08:18:07;97436.25;;;3.03;100.00
50790;BME280;37287;47.554;7.844;2023-04-20T08:20:38;97429.34;;;3.02;100.00
50790;BME280;37287;47.554;7.844;2023-04-20T08:23:05;97433.13;;;3.01;100.00
50790;BME280;37287;47.554;7.844;2023-04-20T08:25:32;97425.09;;;3.01;100.00
50790;BME280;37287;47.554;7.844;2023-04-20T08:27:59;97425.91;;;3.01;100.00
50790;BME280;37287;47.554;7.844;2023-04-20T08:30:28;97422.44;;;3.01;100.00
50790;BME280;37287;47.554;7.844;2023-04-20T08:32:57;97425.91;;;3.01;100.00
50790;BME280;37287;47.554;7.844;2023-04-20T08:35:24;97422.22;;;3.06;100.00
50790;BME280;37287;47.554;7.844;2023-04-20T08:37:51;97425.97;;;3.17;100.00
50790;BME280;37287;47.554;7.844;2023-04-20T08:40:18;97421.84;;;3.20;100.00
50790;BME280;37287;47.554;7.844;2023-04-20T08:42:48;97428.19;;;3.15;100.00
50790;BME280;37287;47.554;7.844;2023-04-20T08:45:15;97428.31;;;3.19;100.00
50790;BME280;37287;47.554;7.844;2023-04-20T08:47:42;97423.72;;;3.19;100.00
50790;BME280;37287;47.554;7.844;2023-04-20T08:50:10;97429.88;;;3.20;100.00
50790;BME280;37287;47.554;7.844;2023-04-20T08:52:37;97422.41;;;3.25;100.00
50790;BME280;37287;47.554;7.844;2023-04-20T08:55:05;97419.47;;;3.31;100.00
50790;BME280;37287;47.554;7.844;2023-04-20T08:57:40;97424.75;;;3.27;100.00
50790;BME280;37287;47.554;7.844;2023-04-20T09:00:08;97430.78;;;3.24;100.00
50790;BME280;37287;47.554;7.844;2023-04-20T09:02:51;97428.88;;;3.24;100.00
50790;BME280;37287;47.554;7.844;2023-04-20T09:05:25;97421.94;;;3.23;100.00
50790;BME280;37287;47.554;7.844;2023-04-20T09:07:53;97421.19;;;3.23;100.00
50790;BME280;37287;47.554;7.844;2023-04-20T09:10:24;97419.28;;;3.23;100.00
50790;BME280;37287;47.554;7.844;2023-04-20T09:12:51;97412.25;;;3.19;100.00
50790;BME280;37287;47.554;7.844;2023-04-20T09:15:28;97412.06;;;3.12;100.00
50790;BME280;37287;47.554;7.844;2023-04-20T09:17:55;97412.59;;;3.17;100.00
50790;BME280;37287;47.554;7.844;2023-04-20T09:20:33;97413.03;;;3.19;100.00
50790;BME280;37287;47.554;7.844;2023-04-20T09:23:19;97409.16;;;3.17;100.00
50790;BME280;37287;47.554;7.844;2023-04-20T09:25:50;97428.00;;;3.08;100.00
50790;BME280;37287;47.554;7.844;2023-04-20T09:28:20;97415.97;;;3.02;100.00
50790;BME280;37287;47.554;7.844;2023-04-20T09:30:48;97413.31;;;3.02;100.00
50790;BME280;37287;47.554;7.844;2023-04-20T09:33:18;97410.16;;;3.00;100.00
50790;BME280;37287;47.554;7.844;2023-04-20T09:35:45;97414.75;;;2.99;100.00
50790;BME280;37287;47.554;7.844;2023-04-20T09:38:15;97415.31;;;2.92;100.00
50790;BME280;37287;47.554;7.844;2023-04-20T09:40:42;97403.16;;;2.95;100.00
50790;BME280;37287;47.554;7.844;2023-04-20T09:43:18;97409.19;;;2.92;100.00
50790;BME280;37287;47.554;7.844;2023-04-20T09:45:45;97412.97;;;2.91;100.00
50790;BME280;37287;47.554;7.844;2023-04-20T09:48:16;97412.19;;;2.90;100.00
50790;BME280;37287;47.554;7.844;2023-04-20T09:50:45;97410.53;;;2.86;100.00
50790;BME280;37287;47.554;7.844;2023-04-20T09:53:16;97415.97;;;2.89;100.00
50790;BME280;37287;47.554;7.844;2023-04-20T09:55:48;97423.56;;;2.87;100.00
50790;BME280;37287;47.554;7.844;2023-04-20T09:58:19;97431.34;;;2.92;100.00
50790;BME280;37287;47.554;7.844;2023-04-20T10:00:47;97434.81;;;2.93;100.00
50790;BME280;37287;47.554;7.844;2023-04-20T10:03:18;97434.16;;;2.96;100.00
50790;BME280;37287;47.554;7.844;2023-04-20T10:05:46;97431.91;;;2.98;100.00
50790;BME280;37287;47.554;7.844;2023-04-20T10:08:12;97440.72;;;2.99;100.00
50790;BME280;37287;47.554;7.844;2023-04-20T10:10:48;97437.59;;;2.97;100.00
50790;BME280;37287;47.554;7.844;2023-04-20T10:13:17;97432.44;;;3.04;100.00
50790;BME280;37287;47.554;7.844;2023-04-20T10:15:47;97427.09;;;3.04;100.00
50790;BME280;37287;47.554;7.844;2023-04-20T10:18:21;97427.91;;;3.04;100.00
50790;BME280;37287;47.554;7.844;2023-04-20T10:21:04;97430.03;;;2.99;100.00
50790;BME280;37287;47.554;7.844;2023-04-20T10:23:31;97411.06;;;3.04;100.00
50790;BME280;37287;47.554;7.844;2023-04-20T10:26:00;97414.28;;;3.09;100.00
50790;BME280;37287;47.554;7.844;2023-04-20T10:28:39;97412.06;;;3.12;100.00
50790;BME280;37287;47.554;7.844;2023-04-20T10:31:10;97409.59;;;3.19;100.00
50790;BME280;37287;47.554;7.844;2023-04-20T10:33:52;97416.59;;;3.23;100.00
50790;BME280;37287;47.554;7.844;2023-04-20T10:36:26;97424.59;;;3.36;100.00
50790;BME280;37287;47.554;7.844;2023-04-20T10:38:53;97424.56;;;3.48;100.00
50790;BME280;37287;47.554;7.844;2023-04-20T10:41:20;97415.72;;;3.60;100.00
50790;BME280;37287;47.554;7.844;2023-04-20T10:43:47;97410.91;;;3.66;100.00
50790;BME280;37287;47.554;7.844;2023-04-20T10:46:18;97408.59;;;3.80;100.00
50790;BME280;37287;47.554;7.844;2023-04-20T10:48:54;97401.19;;;3.89;100.00
50790;BME280;37287;47.554;7.844;2023-04-20T10:51:26;97407.63;;;4.01;100.00
50790;BME280;37287;47.554;7.844;2023-04-20T10:54:04;97409.44;;;4.12;100.00
50790;BME280;37287;47.554;7.844;2023-04-20T10:56:45;97400.22;;;4.26;100.00
50790;BME280;37287;47.554;7.844;2023-04-20T10:59:14;97406.69;;;4.41;100.00
50790;BME280;37287;47.554;7.844;2023-04-20T11:01:44;97409.53;;;4.48;100.00
50790;BME280;37287;47.554;7.844;2023-04-20T11:04:12;97404.09;;;4.60;100.00
50790;BME280;37287;47.554;7.844;2023-04-20T11:06:45;97398.63;;;4.73;100.00
50790;BME280;37287;47.554;7.844;2023-04-20T11:09:17;97390.16;;;4.71;100.00
50790;BME280;37287;47.554;7.844;2023-04-20T11:11:45;97386.25;;;4.84;100.00
50790;BME280;37287;47.554;7.844;2023-04-20T11:14:12;97388.66;;;4.89;100.00
50790;BME280;37287;47.554;7.844;2023-04-20T11:16:50;97383.47;;;4.96;100.00
50790;BME280;37287;47.554;7.844;2023-04-20T11:19:31;97388.19;;;5.03;100.00
50790;BME280;37287;47.554;7.844;2023-04-20T11:22:00;97380.56;;;5.05;100.00
50790;BME280;37287;47.554;7.844;2023-04-20T11:24:34;97381.00;;;5.07;100.00
50790;BME280;37287;47.554;7.844;2023-04-20T11:27:03;97376.69;;;5.03;100.00
50790;BME280;37287;47.554;7.844;2023-04-20T11:29:55;97371.56;;;4.97;100.00
50790;BME280;37287;47.554;7.844;2023-04-20T11:32:25;97376.69;;;5.03;100.00
50790;BME280;37287;47.554;7.844;2023-04-20T11:35:04;97357.69;;;5.11;100.00
50790;BME280;37287;47.554;7.844;2023-04-20T11:37:48;97349.50;;;5.24;100.00
50790;BME280;37287;47.554;7.844;2023-04-20T11:40:17;97355.53;;;5.37;100.00
50790;BME280;37287;47.554;7.844;2023-04-20T11:42:45;97361.53;;;5.49;100.00
50790;BME280;37287;47.554;7.844;2023-04-20T11:45:12;97356.94;;;5.50;100.00
50790;BME280;37287;47.554;7.844;2023-04-20T11:47:39;97355.50;;;5.56;100.00
50790;BME280;37287;47.554;7.844;2023-04-20T11:50:07;97360.75;;;5.68;100.00
50790;BME280;37287;47.554;7.844;2023-04-20T11:52:34;97362.47;;;5.80;100.00
50790;BME280;37287;47.554;7.844;2023-04-20T11:55:01;97360.69;;;5.88;100.00
50790;BME280;37287;47.554;7.844;2023-04-20T11:57:30;97357.34;;;5.95;100.00
50790;BME280;37287;47.554;7.844;2023-04-20T11:59:57;97361.28;;;5.97;100.00
50790;BME280;37287;47.554;7.844;2023-04-20T12:02:24;97363.25;;;6.00;100.00
50790;BME280;37287;47.554;7.844;2023-04-20T12:04:50;97361.09;;;6.10;100.00
50790;BME280;37287;47.554;7.844;2023-04-20T12:07:17;97361.69;;;6.23;100.00
50790;BME280;37287;47.554;7.844;2023-04-20T12:09:44;97360.63;;;6.27;100.00
50790;BME280;37287;47.554;7.844;2023-04-20T12:12:17;97359.59;;;6.35;100.00
50790;BME280;37287;47.554;7.844;2023-04-20T12:14:44;97361.94;;;6.37;100.00
50790;BME280;37287;47.554;7.844;2023-04-20T12:17:11;97360.47;;;6.43;100.00
50790;BME280;37287;47.554;7.844;2023-04-20T12:19:37;97356.66;;;6.44;100.00
50790;BME280;37287;47.554;7.844;2023-04-20T12:22:06;97356.66;;;6.44;100.00
50790;BME280;37287;47.554;7.844;2023-04-20T12:24:34;97343.31;;;6.51;100.00
50790;BME280;37287;47.554;7.844;2023-04-20T12:27:01;97342.13;;;6.49;100.00
50790;BME280;37287;47.554;7.844;2023-04-20T12:29:29;97342.00;;;6.42;100.00
50790;BME280;37287;47.554;7.844;2023-04-20T12:32:00;97344.81;;;6.49;100.00
50790;BME280;37287;47.554;7.844;2023-04-20T12:34:31;97345.28;;;6.28;100.00
50790;BME280;37287;47.554;7.844;2023-04-20T12:36:58;97340.91;;;6.19;100.00
50790;BME280;37287;47.554;7.844;2023-04-20T12:39:24;97344.66;;;6.15;100.00
50790;BME280;37287;47.554;7.844;2023-04-20T12:42:00;97340.91;;;6.19;100.00
50790;BME280;37287;47.554;7.844;2023-04-20T12:44:29;97340.19;;;6.23;100.00
50790;BME280;37287;47.554;7.844;2023-04-20T12:46:56;97340.59;;;6.25;100.00
50790;BME280;37287;47.554;7.844;2023-04-20T12:49:22;97346.88;;;6.32;100.00
50790;BME280;37287;47.554;7.844;2023-04-20T12:51:49;97346.16;;;6.35;100.00
50790;BME280;37287;47.554;7.844;2023-04-20T12:54:19;97341.97;;;6.38;100.00
50790;BME280;37287;47.554;7.844;2023-04-20T12:56:48;97346.63;;;6.41;100.00
50790;BME280;37287;47.554;7.844;2023-04-20T12:59:21;97351.94;;;6.37;100.00
50790;BME280;37287;47.554;7.844;2023-04-20T13:01:47;97352.56;;;6.27;100.00
50790;BME280;37287;47.554;7.844;2023-04-20T13:04:14;97342.88;;;6.23;100.00
50790;BME280;37287;47.554;7.844;2023-04-20T13:06:48;97342.22;;;6.29;100.00
50790;BME280;37287;47.554;7.844;2023-04-20T13:09:14;97342.88;;;6.23;100.00
50790;BME280;37287;47.554;7.844;2023-04-20T13:11:41;97332.59;;;6.28;100.00
50790;BME280;37287;47.554;7.844;2023-04-20T13:14:08;97333.34;;;6.25;100.00
50790;BME280;37287;47.554;7.844;2023-04-20T13:16:35;97331.22;;;6.15;100.00
50790;BME280;37287;47.554;7.844;2023-04-20T13:19:02;97335.13;;;6.17;100.00
50790;BME280;37287;47.554;7.844;2023-04-20T13:21:28;97334.56;;;6.31;100.00